createdAt,value
2023-12-09T00:00:25.306Z,3.58
2023-12-09T00:02:51.868Z,3.12
2023-12-09T00:05:18.408Z,3.68
2023-12-09T00:07:44.922Z,2.53
2023-12-09T00:10:11.435Z,3.57
2023-12-09T00:12:38.012Z,2.53
2023-12-09T00:15:05.902Z,2.88
2023-12-09T00:17:33.948Z,3.06
2023-12-09T00:20:00.881Z,3.54
2023-12-09T00:22:27.811Z,2.06
2023-12-09T00:24:54.644Z,3.25
2023-12-09T00:27:21.157Z,2.63
2023-12-09T00:29:47.684Z,3.11
2023-12-09T00:32:14.469Z,2.38
2023-12-09T00:34:40.983Z,3.03
2023-12-09T00:37:07.478Z,2.94
2023-12-09T00:39:34.140Z,2.88
2023-12-09T00:42:00.762Z,2.92
2023-12-09T00:44:27.420Z,3.37
2023-12-09T00:46:53.892Z,2.55
2023-12-09T00:49:20.434Z,2.30
2023-12-09T00:51:46.988Z,2.18
2023-12-09T00:54:13.520Z,1.91
2023-12-09T00:56:40.027Z,2.31
2023-12-09T00:59:06.750Z,2.67
2023-12-09T01:01:34.820Z,1.33
2023-12-09T01:04:02.822Z,1.52
2023-12-09T01:06:30.527Z,2.91
2023-12-09T01:08:57.159Z,3.12
2023-12-09T01:11:25.203Z,2.43
2023-12-09T01:13:51.765Z,2.97
2023-12-09T01:16:18.369Z,2.35
2023-12-09T01:18:44.958Z,2.66
2023-12-09T01:21:11.520Z,2.16
2023-12-09T01:23:39.612Z,2.31
2023-12-09T01:26:06.885Z,2.86
2023-12-09T01:28:33.547Z,3.12
2023-12-09T01:31:00.279Z,3.27
2023-12-09T01:33:26.909Z,2.82
2023-12-09T01:35:53.469Z,3.31
2023-12-09T01:38:20.142Z,3.10
2023-12-09T01:40:54.165Z,2.85
2023-12-09T01:43:20.867Z,3.30
2023-12-09T01:45:48.102Z,2.64
2023-12-09T01:48:14.978Z,3.35
2023-12-09T01:50:41.659Z,2.67
2023-12-09T01:53:08.199Z,2.27
2023-12-09T01:55:35.083Z,1.48
2023-12-09T01:58:01.814Z,2.20
2023-12-09T02:00:28.406Z,0.97
2023-12-09T02:02:55.103Z,1.66
2023-12-09T02:05:22.365Z,1.96
2023-12-09T02:07:48.887Z,2.40
2023-12-09T02:10:17.937Z,2.00
2023-12-09T02:12:51.365Z,2.70
2023-12-09T02:15:26.919Z,2.73
2023-12-09T02:18:04.864Z,2.74
2023-12-09T02:20:32.531Z,0.74
2023-12-09T02:23:14.932Z,0.40
2023-12-09T02:25:41.881Z,2.23
2023-12-09T02:28:28.163Z,2.56
2023-12-09T02:31:14.644Z,2.83
2023-12-09T02:33:44.622Z,2.23
2023-12-09T02:36:16.941Z,1.84
2023-12-09T02:38:44.225Z,2.21
2023-12-09T02:41:12.324Z,2.75
2023-12-09T02:43:38.846Z,2.69
2023-12-09T02:46:05.520Z,2.40
2023-12-09T02:48:32.196Z,0.92
2023-12-09T02:50:58.802Z,1.94
2023-12-09T02:53:25.323Z,1.93
2023-12-09T02:55:51.845Z,2.20
2023-12-09T02:58:18.498Z,1.46
2023-12-09T03:00:45.166Z,2.21
2023-12-09T03:03:11.791Z,1.99
2023-12-09T03:05:38.401Z,1.18
2023-12-09T03:08:04.955Z,1.75
2023-12-09T03:10:31.561Z,0.98
2023-12-09T03:12:58.769Z,2.24
2023-12-09T03:15:25.240Z,1.76
2023-12-09T03:17:52.088Z,2.12
2023-12-09T03:20:19.240Z,1.91
2023-12-09T03:22:45.811Z,1.70
2023-12-09T03:25:12.314Z,2.08
2023-12-09T03:27:38.893Z,1.81
2023-12-09T03:30:06.202Z,1.02
2023-12-09T03:32:32.719Z,2.19
2023-12-09T03:34:59.302Z,2.06
2023-12-09T03:37:27.792Z,2.22
2023-12-09T03:39:54.628Z,1.99
2023-12-09T03:42:21.218Z,1.35
2023-12-09T03:44:47.781Z,1.70
2023-12-09T03:47:21.864Z,1.88
2023-12-09T03:49:52.711Z,2.11
2023-12-09T03:52:19.472Z,2.44
2023-12-09T03:54:46.032Z,1.82
2023-12-09T03:57:14.649Z,2.16
2023-12-09T03:59:41.759Z,1.79
2023-12-09T04:02:08.388Z,2.96
2023-12-09T04:04:39.361Z,2.98
2023-12-09T04:07:05.807Z,2.65
2023-12-09T04:09:32.327Z,1.92
2023-12-09T04:11:58.832Z,2.03
2023-12-09T04:14:25.370Z,2.37
2023-12-09T04:16:51.846Z,2.81
2023-12-09T04:19:18.500Z,2.65
2023-12-09T04:21:45.036Z,1.51
2023-12-09T04:24:11.661Z,2.07
2023-12-09T04:26:38.222Z,1.99
2023-12-09T04:29:07.825Z,2.06
2023-12-09T04:31:34.489Z,1.65
2023-12-09T04:34:01.380Z,2.20
2023-12-09T04:36:28.034Z,1.91
2023-12-09T04:38:54.668Z,2.31
2023-12-09T04:41:21.203Z,1.98
2023-12-09T04:43:47.750Z,1.81
2023-12-09T04:46:14.403Z,1.92
2023-12-09T04:48:41.391Z,2.18
2023-12-09T04:51:08.068Z,1.87
2023-12-09T04:53:34.609Z,2.05
2023-12-09T04:56:01.243Z,1.93
2023-12-09T04:58:27.810Z,2.61
2023-12-09T05:00:54.335Z,2.70
2023-12-09T05:03:21.440Z,2.72
2023-12-09T05:05:48.234Z,1.49
2023-12-09T05:08:15.409Z,1.93
2023-12-09T05:10:42.047Z,2.97
2023-12-09T05:13:08.598Z,2.35
2023-12-09T05:15:35.103Z,2.81
2023-12-09T05:18:01.746Z,1.93
2023-12-09T05:20:28.392Z,1.94
2023-12-09T05:22:54.846Z,2.66
2023-12-09T05:25:21.355Z,2.59
2023-12-09T05:27:48.296Z,2.99
2023-12-09T05:30:14.925Z,3.03
2023-12-09T05:32:41.467Z,2.65
2023-12-09T05:35:08.492Z,2.69
2023-12-09T05:37:35.272Z,2.69
2023-12-09T05:40:01.820Z,1.68
2023-12-09T05:42:28.695Z,2.07
2023-12-09T05:44:55.447Z,2.71
2023-12-09T05:47:22.041Z,2.62
2023-12-09T05:49:48.674Z,2.90
2023-12-09T05:52:15.194Z,2.55
2023-12-09T05:54:41.718Z,3.01
2023-12-09T05:57:08.321Z,2.12
2023-12-09T05:59:34.860Z,3.04
2023-12-09T06:02:01.404Z,3.11
2023-12-09T06:04:27.959Z,1.12
2023-12-09T06:06:54.555Z,2.99
2023-12-09T06:09:21.118Z,3.16
2023-12-09T06:11:47.651Z,3.28
2023-12-09T06:14:14.165Z,1.90
2023-12-09T06:16:40.648Z,3.22
2023-12-09T06:19:07.592Z,3.11
2023-12-09T06:21:34.179Z,2.63
2023-12-09T06:24:00.803Z,2.09
2023-12-09T06:26:28.962Z,3.15
2023-12-09T06:28:55.477Z,3.21
2023-12-09T06:31:21.951Z,2.52
2023-12-09T06:33:48.699Z,3.26
2023-12-09T06:36:15.452Z,3.33
2023-12-09T06:38:42.170Z,3.32
2023-12-09T06:41:08.977Z,3.27
2023-12-09T06:43:35.544Z,3.05
2023-12-09T06:46:02.262Z,1.64
2023-12-09T06:48:29.133Z,2.73
2023-12-09T06:50:56.092Z,2.81
2023-12-09T06:53:22.669Z,2.69
2023-12-09T06:55:49.165Z,2.90
2023-12-09T06:58:17.274Z,3.08
2023-12-09T07:00:44.362Z,3.25
2023-12-09T07:03:12.666Z,2.83
2023-12-09T07:05:39.438Z,2.60
2023-12-09T07:08:06.142Z,2.68
2023-12-09T07:10:32.701Z,3.00
2023-12-09T07:12:59.215Z,2.19
2023-12-09T07:15:25.803Z,2.14
2023-12-09T07:17:52.376Z,1.94
2023-12-09T07:20:19.507Z,2.28
2023-12-09T07:22:46.428Z,1.58
2023-12-09T07:25:12.989Z,1.47
2023-12-09T07:27:39.556Z,1.58
2023-12-09T07:30:06.993Z,1.31
2023-12-09T07:32:33.705Z,1.47
2023-12-09T07:35:00.484Z,0.29
2023-12-09T07:37:27.395Z,1.69
2023-12-09T07:39:54.084Z,2.19
2023-12-09T07:42:20.682Z,1.70
2023-12-09T07:44:47.187Z,1.29
2023-12-09T07:47:13.619Z,1.42
2023-12-09T07:49:40.323Z,2.24
2023-12-09T07:52:07.064Z,1.91
2023-12-09T07:54:33.686Z,2.03
2023-12-09T07:57:00.324Z,1.74
2023-12-09T07:59:26.905Z,1.54
2023-12-09T08:01:53.511Z,1.18
2023-12-09T08:04:20.235Z,1.11
2023-12-09T08:06:46.820Z,-0.22
2023-12-09T08:09:13.394Z,1.25
2023-12-09T08:11:40.023Z,1.54
2023-12-09T08:14:09.692Z,1.65
2023-12-09T08:16:37.322Z,1.60
2023-12-09T08:19:03.954Z,1.54
2023-12-09T08:21:35.386Z,2.08
2023-12-09T08:24:02.894Z,1.62
2023-12-09T08:26:29.724Z,1.98
2023-12-09T08:28:56.673Z,2.40
2023-12-09T08:31:23.469Z,2.19
2023-12-09T08:33:50.383Z,2.14
2023-12-09T08:36:17.031Z,1.60
2023-12-09T08:38:43.630Z,1.61
2023-12-09T08:41:10.164Z,1.66
2023-12-09T08:43:36.741Z,1.74
2023-12-09T08:46:03.339Z,1.77
2023-12-09T08:48:30.199Z,1.76
2023-12-09T08:50:56.925Z,2.19
2023-12-09T08:53:23.456Z,2.60
2023-12-09T08:55:49.956Z,2.65
2023-12-09T08:58:17.354Z,3.05
2023-12-09T09:00:44.051Z,2.87
2023-12-09T09:03:10.822Z,2.94
2023-12-09T09:05:37.447Z,2.50
2023-12-09T09:08:04.993Z,2.86
2023-12-09T09:10:31.764Z,2.50
2023-12-09T09:12:58.328Z,2.66
2023-12-09T09:15:25.326Z,3.09
2023-12-09T09:17:52.489Z,2.73
2023-12-09T09:20:19.222Z,3.47
2023-12-09T09:22:47.503Z,3.17
2023-12-09T09:25:14.858Z,2.78
2023-12-09T09:27:41.576Z,3.04
2023-12-09T09:30:08.740Z,2.87
2023-12-09T09:32:35.565Z,3.03
2023-12-09T09:35:02.169Z,2.30
2023-12-09T09:37:29.442Z,2.66
2023-12-09T09:39:56.018Z,1.92
2023-12-09T09:42:35.840Z,2.60
2023-12-09T09:45:32.724Z,3.28
2023-12-09T09:48:05.258Z,3.03
2023-12-09T09:50:36.673Z,3.40
2023-12-09T09:53:06.638Z,3.51
2023-12-09T09:55:34.097Z,3.47
2023-12-09T09:58:00.864Z,2.95
2023-12-09T10:00:29.842Z,3.24
2023-12-09T10:02:58.121Z,2.25
2023-12-09T10:05:25.964Z,2.08
2023-12-09T10:07:53.106Z,2.16
2023-12-09T10:10:19.576Z,2.88
2023-12-09T10:12:46.673Z,2.20
2023-12-09T10:15:13.581Z,2.32
2023-12-09T10:17:40.425Z,2.67
2023-12-09T10:20:09.675Z,1.80
2023-12-09T10:22:37.784Z,3.07
2023-12-09T10:25:04.603Z,2.98
2023-12-09T10:27:31.193Z,3.05
2023-12-09T10:29:57.941Z,2.33
2023-12-09T10:32:26.621Z,3.14
2023-12-09T10:34:53.849Z,2.67
2023-12-09T10:37:20.799Z,3.40
2023-12-09T10:39:48.556Z,1.74
2023-12-09T10:42:15.654Z,3.30
2023-12-09T10:44:42.658Z,2.99
2023-12-09T10:47:09.495Z,2.85
2023-12-09T10:49:36.589Z,2.99
2023-12-09T10:52:03.489Z,3.84
2023-12-09T10:54:30.615Z,3.81
2023-12-09T10:56:59.554Z,3.57
2023-12-09T10:59:30.266Z,3.83
2023-12-09T11:01:57.863Z,3.94
2023-12-09T11:04:25.793Z,3.67
2023-12-09T11:06:55.155Z,3.06
2023-12-09T11:09:22.771Z,4.07
2023-12-09T11:11:49.550Z,3.56
2023-12-09T11:14:16.668Z,3.13
2023-12-09T11:16:44.576Z,2.98
2023-12-09T11:19:18.407Z,3.24
2023-12-09T11:21:47.200Z,3.86
2023-12-09T11:24:19.164Z,4.19
2023-12-09T11:26:47.251Z,4.93
2023-12-09T11:29:16.301Z,3.88
2023-12-09T11:31:44.151Z,5.34
2023-12-09T11:34:13.283Z,4.83
2023-12-09T11:36:40.962Z,5.12
2023-12-09T11:39:11.191Z,4.73
2023-12-09T11:41:39.572Z,4.70
2023-12-09T11:44:07.395Z,3.83
2023-12-09T11:46:35.744Z,4.94
2023-12-09T11:49:06.875Z,3.67
2023-12-09T11:51:37.637Z,4.37
2023-12-09T11:54:09.537Z,3.48
2023-12-09T11:56:38.800Z,3.57
2023-12-09T11:59:06.694Z,4.39
2023-12-09T12:01:33.578Z,4.38
2023-12-09T12:04:00.717Z,4.74
2023-12-09T12:06:27.440Z,4.79
2023-12-09T12:08:55.279Z,3.95
2023-12-09T12:11:24.728Z,4.80
2023-12-09T12:13:54.784Z,5.31
2023-12-09T12:16:21.958Z,4.85
2023-12-09T12:18:49.545Z,4.47
2023-12-09T12:21:16.767Z,4.48
2023-12-09T12:23:43.756Z,4.11
2023-12-09T12:26:12.477Z,4.73
2023-12-09T12:28:39.222Z,4.38
2023-12-09T12:31:07.468Z,4.87
2023-12-09T12:33:34.724Z,5.22
2023-12-09T12:36:02.425Z,4.55
2023-12-09T12:38:29.408Z,4.51
2023-12-09T12:40:57.989Z,4.59
2023-12-09T12:43:29.439Z,4.57
2023-12-09T12:46:01.313Z,4.76
2023-12-09T12:48:28.935Z,2.49
2023-12-09T12:50:56.044Z,3.98
2023-12-09T12:53:26.649Z,3.76
2023-12-09T12:55:55.890Z,4.25
2023-12-09T12:58:23.268Z,4.62
2023-12-09T13:00:50.930Z,3.81
2023-12-09T13:03:18.100Z,4.53
2023-12-09T13:05:44.848Z,4.05
2023-12-09T13:08:11.528Z,4.54
2023-12-09T13:10:38.080Z,4.63
2023-12-09T13:13:06.704Z,4.27
2023-12-09T13:15:33.402Z,4.17
2023-12-09T13:18:00.173Z,3.43
2023-12-09T13:20:26.827Z,4.29
2023-12-09T13:22:53.434Z,3.50
2023-12-09T13:25:19.937Z,5.08
2023-12-09T13:27:47.021Z,5.31
2023-12-09T13:30:15.036Z,4.69
2023-12-09T13:32:41.855Z,5.05
2023-12-09T13:35:08.752Z,4.67
2023-12-09T13:37:36.021Z,3.83
2023-12-09T13:40:03.285Z,3.46
2023-12-09T13:42:30.242Z,3.96
2023-12-09T13:44:56.978Z,4.49
2023-12-09T13:47:23.785Z,4.73
2023-12-09T13:49:50.633Z,4.43
2023-12-09T13:52:18.287Z,4.38
2023-12-09T13:54:45.308Z,4.92
2023-12-09T13:57:12.006Z,4.92
2023-12-09T13:59:38.700Z,3.65
2023-12-09T14:02:06.503Z,4.67
2023-12-09T14:04:33.384Z,2.83
2023-12-09T14:07:00.408Z,4.62
2023-12-09T14:09:27.130Z,5.09
2023-12-09T14:11:53.749Z,5.23
2023-12-09T14:14:20.338Z,4.53
2023-12-09T14:16:47.301Z,4.38
2023-12-09T14:19:14.180Z,5.16
2023-12-09T14:21:40.878Z,5.00
2023-12-09T14:24:07.672Z,4.29
2023-12-09T14:26:35.588Z,5.47
2023-12-09T14:29:02.502Z,4.65
2023-12-09T14:31:29.139Z,4.74
2023-12-09T14:33:56.158Z,5.03
2023-12-09T14:36:23.109Z,5.61
2023-12-09T14:38:50.091Z,4.41
2023-12-09T14:41:16.779Z,4.40
2023-12-09T14:43:45.687Z,4.58
2023-12-09T14:46:13.451Z,5.15
2023-12-09T14:48:40.236Z,5.05
2023-12-09T14:51:07.951Z,4.87
2023-12-09T14:53:34.683Z,3.36
2023-12-09T14:56:01.990Z,4.02
2023-12-09T14:58:29.332Z,3.79
2023-12-09T15:00:56.155Z,4.02
2023-12-09T15:03:23.068Z,4.29
2023-12-09T15:05:49.959Z,4.41
2023-12-09T15:08:16.578Z,5.07
2023-12-09T15:10:43.249Z,4.28
2023-12-09T15:13:09.776Z,5.20
2023-12-09T15:15:36.362Z,3.92
2023-12-09T15:18:03.324Z,3.80
2023-12-09T15:20:29.974Z,4.23
2023-12-09T15:22:57.545Z,4.67
2023-12-09T15:25:24.100Z,4.74
2023-12-09T15:27:50.769Z,4.48
2023-12-09T15:30:19.818Z,4.27
2023-12-09T15:32:46.678Z,4.36
2023-12-09T15:35:13.404Z,3.69
2023-12-09T15:37:41.047Z,4.38
2023-12-09T15:40:10.203Z,4.75
2023-12-09T15:42:37.431Z,4.57
2023-12-09T15:45:05.372Z,4.51
2023-12-09T15:47:32.156Z,4.32
2023-12-09T15:49:58.839Z,3.78
2023-12-09T15:52:25.792Z,3.79
2023-12-09T15:54:52.534Z,3.54
2023-12-09T15:57:19.331Z,3.24
2023-12-09T15:59:47.634Z,4.08
2023-12-09T16:02:14.687Z,4.13
2023-12-09T16:04:41.469Z,3.74
2023-12-09T16:07:08.138Z,4.21
2023-12-09T16:09:40.608Z,4.35
2023-12-09T16:12:08.059Z,3.85
2023-12-09T16:14:34.707Z,4.46
2023-12-09T16:17:03.049Z,4.05
2023-12-09T16:19:29.867Z,3.04
2023-12-09T16:21:56.465Z,2.95
2023-12-09T16:24:28.186Z,3.44
2023-12-09T16:26:56.951Z,3.31
2023-12-09T16:29:24.192Z,2.58
2023-12-09T16:31:51.123Z,3.91
2023-12-09T16:34:17.868Z,3.59
2023-12-09T16:36:44.688Z,4.19
2023-12-09T16:39:14.157Z,4.23
2023-12-09T16:41:41.211Z,4.40
2023-12-09T16:44:10.587Z,4.20
2023-12-09T16:46:39.330Z,4.48
2023-12-09T16:49:08.936Z,4.34
2023-12-09T16:51:35.850Z,4.11
2023-12-09T16:54:02.521Z,3.92
2023-12-09T16:56:29.228Z,4.19
2023-12-09T16:58:57.495Z,3.80
2023-12-09T17:01:24.156Z,3.16
2023-12-09T17:03:50.893Z,4.32
2023-12-09T17:06:17.582Z,3.68
2023-12-09T17:08:44.226Z,3.72
2023-12-09T17:11:10.868Z,4.26
2023-12-09T17:13:37.442Z,4.32
2023-12-09T17:16:04.918Z,3.76
2023-12-09T17:18:31.600Z,2.90
2023-12-09T17:20:58.867Z,3.63
2023-12-09T17:23:25.694Z,3.75
2023-12-09T17:25:52.586Z,2.63
2023-12-09T17:28:19.995Z,2.67
2023-12-09T17:30:48.136Z,2.32
2023-12-09T17:33:14.940Z,3.36
2023-12-09T17:35:41.730Z,3.55
2023-12-09T17:38:08.562Z,3.51
2023-12-09T17:40:35.144Z,2.82
2023-12-09T17:43:01.818Z,3.24
2023-12-09T17:45:28.425Z,3.39
2023-12-09T17:47:55.128Z,3.55
2023-12-09T17:50:22.589Z,3.14
2023-12-09T17:52:49.208Z,1.94
2023-12-09T17:55:16.003Z,2.56
2023-12-09T17:57:42.895Z,3.24
2023-12-09T18:00:11.498Z,3.07
2023-12-09T18:02:38.506Z,3.87
2023-12-09T18:05:05.491Z,3.78
2023-12-09T18:07:32.440Z,3.96
2023-12-09T18:09:58.980Z,3.98
2023-12-09T18:12:25.931Z,4.11
2023-12-09T18:14:52.747Z,3.73
2023-12-09T18:17:19.899Z,3.13
2023-12-09T18:19:47.701Z,3.18
2023-12-09T18:22:14.519Z,3.77
2023-12-09T18:24:41.370Z,3.78
2023-12-09T18:27:08.296Z,3.23
2023-12-09T18:29:34.957Z,4.21
2023-12-09T18:32:01.505Z,4.21
2023-12-09T18:34:28.151Z,2.90
2023-12-09T18:36:55.104Z,3.96
2023-12-09T18:39:22.292Z,2.95
2023-12-09T18:41:48.974Z,2.94
2023-12-09T18:44:16.339Z,3.62
2023-12-09T18:46:43.937Z,3.78
2023-12-09T18:49:10.978Z,2.42
2023-12-09T18:51:37.860Z,3.04
2023-12-09T18:54:04.736Z,3.76
2023-12-09T18:56:31.822Z,3.77
2023-12-09T18:58:58.324Z,2.87
2023-12-09T19:01:25.043Z,3.40
2023-12-09T19:03:51.846Z,3.93
2023-12-09T19:06:18.703Z,3.66
2023-12-09T19:08:45.377Z,4.14
2023-12-09T19:11:12.006Z,4.34
2023-12-09T19:13:38.594Z,4.55
2023-12-09T19:16:05.773Z,3.90
2023-12-09T19:18:32.656Z,4.59
2023-12-09T19:20:59.391Z,3.69
2023-12-09T19:23:25.975Z,4.62
2023-12-09T19:25:52.633Z,3.55
2023-12-09T19:28:19.174Z,4.65
2023-12-09T19:30:45.770Z,4.77
2023-12-09T19:33:12.604Z,4.42
2023-12-09T19:35:39.219Z,4.40
2023-12-09T19:38:05.780Z,4.40
2023-12-09T19:40:32.381Z,4.71
2023-12-09T19:42:59.000Z,4.41
2023-12-09T19:45:27.073Z,4.60
2023-12-09T19:47:56.328Z,4.66
2023-12-09T19:50:25.000Z,4.01
2023-12-09T19:52:51.966Z,4.91
2023-12-09T19:55:18.539Z,4.46
2023-12-09T19:57:45.742Z,4.79
2023-12-09T20:00:15.804Z,4.53
2023-12-09T20:02:45.604Z,4.69
2023-12-09T20:05:12.437Z,4.04
2023-12-09T20:07:39.170Z,4.55
2023-12-09T20:10:06.389Z,4.76
2023-12-09T20:12:33.083Z,4.98
2023-12-09T20:14:59.859Z,5.20
2023-12-09T20:17:26.520Z,5.01
2023-12-09T20:19:53.124Z,5.41
2023-12-09T20:22:21.222Z,5.67
2023-12-09T20:24:48.135Z,5.88
2023-12-09T20:27:15.030Z,6.00
2023-12-09T20:29:41.785Z,5.73
2023-12-09T20:32:08.352Z,6.18
2023-12-09T20:34:35.031Z,6.74
2023-12-09T20:37:02.440Z,6.59
2023-12-09T20:39:29.181Z,6.39
2023-12-09T20:41:55.876Z,5.96
2023-12-09T20:44:22.416Z,5.90
2023-12-09T20:46:48.981Z,6.08
2023-12-09T20:49:17.948Z,6.63
2023-12-09T20:51:45.964Z,6.35
2023-12-09T20:54:13.036Z,6.48
2023-12-09T20:56:39.815Z,6.79
2023-12-09T20:59:09.175Z,5.71
2023-12-09T21:01:46.654Z,6.94
2023-12-09T21:04:14.123Z,5.97
2023-12-09T21:06:41.106Z,7.20
2023-12-09T21:09:08.336Z,7.35
2023-12-09T21:11:38.575Z,7.34
2023-12-09T21:14:06.559Z,7.23
2023-12-09T21:16:34.364Z,7.81
2023-12-09T21:19:02.089Z,7.12
2023-12-09T21:21:31.064Z,7.10
2023-12-09T21:23:58.148Z,6.39
2023-12-09T21:26:24.647Z,6.53
2023-12-09T21:28:51.257Z,5.83
2023-12-09T21:31:18.811Z,6.55
2023-12-09T21:33:45.545Z,6.40
2023-12-09T21:36:16.783Z,6.66
2023-12-09T21:38:44.317Z,6.63
2023-12-09T21:41:31.152Z,6.67
2023-12-09T21:43:57.713Z,6.86
2023-12-09T21:46:25.505Z,6.13
2023-12-09T21:48:53.657Z,6.10
2023-12-09T21:51:21.696Z,6.21
2023-12-09T21:53:48.422Z,5.43
2023-12-09T21:56:26.055Z,6.50
2023-12-09T21:58:53.603Z,6.43
2023-12-09T22:01:21.013Z,6.47
2023-12-09T22:03:48.716Z,5.85
2023-12-09T22:06:15.758Z,5.29
2023-12-09T22:08:43.552Z,6.14
2023-12-09T22:11:10.665Z,5.36
2023-12-09T22:13:37.279Z,6.22
2023-12-09T22:16:04.041Z,6.08
2023-12-09T22:18:30.766Z,5.77
2023-12-09T22:20:58.948Z,5.99
2023-12-09T22:23:25.521Z,5.94
2023-12-09T22:25:52.094Z,5.37
2023-12-09T22:28:18.587Z,6.10
2023-12-09T22:30:45.218Z,6.08
2023-12-09T22:33:11.940Z,5.20
2023-12-09T22:35:38.479Z,5.83
2023-12-09T22:38:05.018Z,5.84
2023-12-09T22:40:31.653Z,5.61
2023-12-09T22:42:58.268Z,5.33
2023-12-09T22:45:24.812Z,5.21
2023-12-09T22:47:51.416Z,4.63
2023-12-09T22:50:18.190Z,5.58
2023-12-09T22:52:46.538Z,5.53
2023-12-09T22:55:13.383Z,5.46
2023-12-09T22:57:39.952Z,4.79
2023-12-09T23:00:11.199Z,5.32
2023-12-09T23:02:37.677Z,5.34
2023-12-09T23:05:04.392Z,4.37
2023-12-09T23:07:30.968Z,3.97
2023-12-09T23:09:57.520Z,5.06
2023-12-09T23:12:24.156Z,4.87
2023-12-09T23:14:50.715Z,4.81
2023-12-09T23:17:17.224Z,5.42
2023-12-09T23:19:47.276Z,5.35
2023-12-09T23:22:13.888Z,4.41
2023-12-09T23:24:40.485Z,5.51
2023-12-09T23:27:07.179Z,5.33
2023-12-09T23:29:33.822Z,4.58
2023-12-09T23:32:00.931Z,5.08
2023-12-09T23:34:27.565Z,5.53
2023-12-09T23:36:55.006Z,5.36
2023-12-09T23:39:21.622Z,5.51
2023-12-09T23:41:48.990Z,5.36
2023-12-09T23:44:15.618Z,5.55
2023-12-09T23:46:42.172Z,5.62
2023-12-09T23:49:08.821Z,4.99
2023-12-09T23:51:35.584Z,5.66
2023-12-09T23:54:02.225Z,5.79
2023-12-09T23:56:28.749Z,5.48
2023-12-09T23:58:55.215Z,5.47
